createdAt,value
2019-06-08T00:00:27.032Z,85.64
2019-06-08T00:01:27.053Z,84.97
2019-06-08T00:02:27.054Z,86.50
2019-06-08T00:03:27.049Z,86.02
2019-06-08T00:04:27.045Z,86.12
2019-06-08T00:05:27.057Z,86.12
2019-06-08T00:06:27.044Z,86.21
2019-06-08T00:07:27.059Z,86.31
2019-06-08T00:08:27.060Z,85.93
2019-06-08T00:09:27.044Z,86.02
2019-06-08T00:10:27.065Z,85.45
2019-06-08T00:11:27.053Z,85.16
2019-06-08T00:12:27.052Z,84.01
2019-06-08T00:13:27.051Z,84.58
2019-06-08T00:14:27.063Z,85.64
2019-06-08T00:15:27.057Z,85.16
2019-06-08T00:16:27.087Z,85.64
2019-06-08T00:17:37.776Z,84.78
2019-06-08T00:18:27.067Z,85.25
2019-06-08T00:19:27.062Z,85.25
2019-06-08T00:20:27.063Z,85.16
2019-06-08T00:21:27.083Z,84.68
2019-06-08T00:22:27.081Z,83.34
2019-06-08T00:23:27.085Z,83.34
2019-06-08T00:24:27.067Z,82.48
2019-06-08T00:25:27.083Z,82.86
2019-06-08T00:26:27.074Z,82.96
2019-06-08T00:27:27.075Z,83.53
2019-06-08T00:28:27.074Z,83.34
2019-06-08T00:29:27.117Z,83.63
2019-06-08T00:30:27.095Z,82.96
2019-06-08T00:31:27.080Z,82.38
2019-06-08T00:32:27.112Z,84.01
2019-06-08T00:33:27.081Z,83.15
2019-06-08T00:34:27.109Z,82.48
2019-06-08T00:35:27.094Z,83.05
2019-06-08T00:36:27.093Z,83.72
2019-06-08T00:37:27.104Z,83.72
2019-06-08T00:38:27.096Z,83.05
2019-06-08T00:39:27.097Z,83.25
2019-06-08T00:40:27.095Z,82.76
2019-06-08T00:41:27.091Z,82.57
2019-06-08T00:42:27.144Z,82.48
2019-06-08T00:43:27.094Z,83.63
2019-06-08T00:44:27.107Z,82.38
2019-06-08T00:45:27.103Z,82.48
2019-06-08T00:46:27.106Z,81.81
2019-06-08T00:47:44.945Z,81.43
2019-06-08T00:48:27.106Z,81.13
2019-06-08T00:49:27.122Z,80.37
2019-06-08T00:50:27.104Z,79.32
2019-06-08T00:51:27.132Z,80.85
2019-06-08T00:52:27.112Z,81.71
2019-06-08T00:53:27.143Z,80.66
2019-06-08T00:54:27.120Z,80.66
2019-06-08T00:55:27.126Z,80.27
2019-06-08T00:56:27.115Z,80.66
2019-06-08T00:57:27.128Z,80.47
2019-06-08T00:58:27.325Z,81.13
2019-06-08T00:59:27.121Z,82.67
2019-06-08T01:00:27.134Z,81.13
2019-06-08T01:01:28.193Z,82.48
2019-06-08T01:02:27.135Z,82.38
2019-06-08T01:03:27.128Z,81.90
2019-06-08T01:04:27.322Z,80.66
2019-06-08T01:05:27.121Z,80.37
2019-06-08T01:06:27.593Z,81.52
2019-06-08T01:07:27.137Z,82.38
2019-06-08T01:08:27.473Z,82.00
2019-06-08T01:09:27.131Z,81.23
2019-06-08T01:10:27.577Z,80.27
2019-06-08T01:11:27.146Z,79.89
2019-06-08T01:12:27.138Z,80.18
2019-06-08T01:13:27.153Z,80.56
2019-06-08T01:14:27.206Z,80.18
2019-06-08T01:15:32.852Z,79.41
2019-06-08T01:16:27.161Z,79.60
2019-06-08T01:17:27.584Z,79.13
2019-06-08T01:18:27.440Z,79.80
2019-06-08T01:19:27.465Z,80.37
2019-06-08T01:20:27.551Z,79.80
2019-06-08T01:21:27.688Z,79.60
2019-06-08T01:22:27.771Z,80.08
2019-06-08T01:23:27.884Z,79.51
2019-06-08T01:24:27.952Z,80.27
2019-06-08T01:25:27.964Z,79.89
2019-06-08T01:26:28.173Z,81.13
2019-06-08T01:27:28.168Z,81.33
2019-06-08T01:28:28.232Z,80.18
2019-06-08T01:29:28.367Z,80.85
2019-06-08T01:30:28.426Z,81.71
2019-06-08T01:31:28.375Z,80.85
2019-06-08T01:32:28.469Z,80.37
2019-06-08T01:33:27.174Z,80.47
2019-06-08T01:34:27.175Z,81.13
2019-06-08T01:35:27.163Z,80.08
2019-06-08T01:36:27.512Z,79.03
2019-06-08T01:37:27.186Z,79.70
2019-06-08T01:38:27.244Z,79.13
2019-06-08T01:39:27.302Z,80.56
2019-06-08T01:40:27.482Z,79.60
2019-06-08T01:41:27.766Z,80.18
2019-06-08T01:42:27.671Z,81.33
2019-06-08T01:43:27.780Z,82.09
2019-06-08T01:44:28.088Z,80.37
2019-06-08T01:45:27.903Z,80.76
2019-06-08T01:46:28.263Z,81.52
2019-06-08T01:47:28.243Z,82.67
2019-06-08T01:48:28.217Z,80.37
2019-06-08T01:49:28.412Z,78.74
2019-06-08T01:50:28.250Z,79.70
2019-06-08T01:51:27.494Z,80.08
2019-06-08T01:52:27.187Z,80.47
2019-06-08T01:53:27.189Z,80.27
2019-06-08T01:54:27.213Z,79.51
2019-06-08T01:55:27.200Z,80.37
2019-06-08T01:56:27.198Z,79.41
2019-06-08T01:57:27.255Z,79.70
2019-06-08T01:58:27.458Z,80.47
2019-06-08T01:59:27.422Z,80.18
2019-06-08T02:00:35.886Z,78.93
2019-06-08T02:01:27.773Z,78.89
2019-06-08T02:02:27.841Z,79.66
2019-06-08T02:03:28.176Z,80.47
2019-06-08T02:04:28.059Z,80.52
2019-06-08T02:05:28.184Z,79.57
2019-06-08T02:06:28.433Z,79.75
2019-06-08T02:07:28.347Z,79.70
2019-06-08T02:08:28.529Z,80.27
2019-06-08T02:09:28.598Z,80.24
2019-06-08T02:10:27.212Z,79.85
2019-06-08T02:11:28.691Z,80.18
2019-06-08T02:12:27.225Z,80.81
2019-06-08T02:13:27.211Z,79.57
2019-06-08T02:14:27.217Z,78.32
2019-06-08T02:15:27.298Z,79.75
2019-06-08T02:16:27.423Z,79.32
2019-06-08T02:17:27.385Z,79.47
2019-06-08T02:18:41.839Z,79.99
2019-06-08T02:19:28.339Z,80.43
2019-06-08T02:20:28.621Z,80.33
2019-06-08T02:21:28.763Z,80.14
2019-06-08T02:22:27.220Z,80.14
2019-06-08T02:23:27.240Z,80.43
2019-06-08T02:24:27.265Z,80.52
2019-06-08T02:25:27.395Z,80.81
2019-06-08T02:26:28.834Z,80.90
2019-06-08T02:27:27.296Z,81.20
2019-06-08T02:28:27.459Z,81.00
2019-06-08T02:29:27.474Z,79.66
2019-06-08T02:30:28.358Z,80.14
2019-06-08T02:31:27.989Z,79.47
2019-06-08T02:32:28.538Z,79.57
2019-06-08T02:33:28.279Z,80.33
2019-06-08T02:34:28.312Z,80.81
2019-06-08T02:35:27.969Z,79.75
2019-06-08T02:36:28.834Z,79.47
2019-06-08T02:37:28.717Z,80.90
2019-06-08T02:38:27.593Z,81.48
2019-06-08T02:39:28.517Z,80.71
2019-06-08T02:40:27.541Z,80.14
2019-06-08T02:41:28.841Z,80.81
2019-06-08T02:42:28.492Z,80.62
2019-06-08T02:43:28.897Z,81.29
2019-06-08T02:44:28.302Z,81.38
2019-06-08T02:45:29.451Z,80.81
2019-06-08T02:46:28.866Z,80.24
2019-06-08T02:47:28.471Z,80.52
2019-06-08T02:48:27.271Z,79.57
2019-06-08T02:49:28.999Z,80.43
2019-06-08T02:50:28.480Z,80.14
2019-06-08T02:51:28.722Z,81.00
2019-06-08T02:52:27.264Z,80.81
2019-06-08T02:53:29.143Z,81.29
2019-06-08T02:54:27.275Z,80.71
2019-06-08T02:55:28.707Z,81.10
2019-06-08T02:56:27.267Z,80.90
2019-06-08T02:57:29.046Z,81.96
2019-06-08T02:58:29.102Z,82.63
2019-06-08T02:59:27.275Z,82.24
2019-06-08T03:00:27.272Z,82.15
2019-06-08T03:01:27.296Z,82.15
2019-06-08T03:02:27.285Z,82.43
2019-06-08T03:03:27.293Z,81.29
2019-06-08T03:04:27.283Z,81.10
2019-06-08T03:05:27.279Z,82.92
2019-06-08T03:06:27.273Z,82.43
2019-06-08T03:07:27.282Z,81.29
2019-06-08T03:08:27.284Z,81.10
2019-06-08T03:09:27.344Z,81.38
2019-06-08T03:10:27.282Z,80.90
2019-06-08T03:11:27.283Z,81.77
2019-06-08T03:12:27.291Z,81.10
2019-06-08T03:13:27.289Z,82.63
2019-06-08T03:14:27.299Z,81.96
2019-06-08T03:15:27.316Z,81.96
2019-06-08T03:16:27.499Z,81.48
2019-06-08T03:17:27.291Z,80.81
2019-06-08T03:18:27.296Z,80.71
2019-06-08T03:19:27.298Z,81.57
2019-06-08T03:20:27.300Z,80.71
2019-06-08T03:21:27.311Z,80.43
2019-06-08T03:22:27.298Z,80.81
2019-06-08T03:23:27.296Z,80.33
2019-06-08T03:24:27.300Z,81.10
2019-06-08T03:25:27.341Z,81.77
2019-06-08T03:26:27.303Z,82.15
2019-06-08T03:27:27.302Z,81.67
2019-06-08T03:28:27.324Z,81.38
2019-06-08T03:29:27.319Z,79.95
2019-06-08T03:30:28.540Z,81.29
2019-06-08T03:31:27.317Z,81.38
2019-06-08T03:32:27.334Z,81.86
2019-06-08T03:33:27.331Z,82.15
2019-06-08T03:34:27.338Z,82.73
2019-06-08T03:35:27.347Z,82.73
2019-06-08T03:36:27.334Z,82.73
2019-06-08T03:37:27.308Z,82.06
2019-06-08T03:38:27.330Z,82.06
2019-06-08T03:39:27.311Z,81.29
2019-06-08T03:40:27.314Z,82.15
2019-06-08T03:41:27.528Z,82.06
2019-06-08T03:42:27.333Z,81.67
2019-06-08T03:43:27.329Z,82.82
2019-06-08T03:44:27.351Z,82.06
2019-06-08T03:45:27.320Z,82.43
2019-06-08T03:46:27.406Z,83.16
2019-06-08T03:47:27.341Z,83.01
2019-06-08T03:48:27.338Z,82.34
2019-06-08T03:49:41.190Z,82.78
2019-06-08T03:50:27.343Z,83.36
2019-06-08T03:51:27.330Z,83.06
2019-06-08T03:52:27.344Z,83.36
2019-06-08T03:53:27.338Z,83.20
2019-06-08T03:54:27.338Z,82.92
2019-06-08T03:55:27.387Z,83.68
2019-06-08T03:56:27.343Z,84.02
2019-06-08T03:57:27.347Z,83.30
2019-06-08T03:58:27.332Z,82.73
2019-06-08T03:59:27.351Z,83.06
2019-06-08T04:00:27.341Z,82.82
2019-06-08T04:01:27.336Z,83.20
2019-06-08T04:02:27.356Z,83.01
2019-06-08T04:03:27.370Z,82.40
2019-06-08T04:04:27.365Z,82.78
2019-06-08T04:05:27.356Z,83.45
2019-06-08T04:06:27.339Z,83.36
2019-06-08T04:07:27.342Z,82.43
2019-06-08T04:08:27.357Z,83.06
2019-06-08T04:09:27.343Z,82.97
2019-06-08T04:10:27.348Z,82.11
2019-06-08T04:11:27.370Z,82.97
2019-06-08T04:12:27.358Z,83.26
2019-06-08T04:13:27.357Z,82.40
2019-06-08T04:14:27.348Z,83.26
2019-06-08T04:15:27.354Z,82.78
2019-06-08T04:16:27.364Z,82.97
2019-06-08T04:17:27.356Z,84.02
2019-06-08T04:18:27.354Z,83.93
2019-06-08T04:19:27.362Z,82.97
2019-06-08T04:20:27.359Z,83.36
2019-06-08T04:21:27.374Z,81.82
2019-06-08T04:22:27.364Z,82.68
2019-06-08T04:23:27.370Z,82.59
2019-06-08T04:24:27.382Z,81.92
2019-06-08T04:25:27.376Z,81.92
2019-06-08T04:26:27.373Z,81.82
2019-06-08T04:27:27.369Z,82.11
2019-06-08T04:28:27.364Z,82.97
2019-06-08T04:29:27.559Z,81.44
2019-06-08T04:30:27.367Z,82.11
2019-06-08T04:31:27.391Z,82.30
2019-06-08T04:32:27.372Z,83.16
2019-06-08T04:33:27.365Z,82.68
2019-06-08T04:34:27.409Z,82.59
2019-06-08T04:35:27.372Z,82.78
2019-06-08T04:36:27.386Z,82.59
2019-06-08T04:37:27.379Z,82.78
2019-06-08T04:38:27.372Z,82.78
2019-06-08T04:39:27.380Z,83.06
2019-06-08T04:40:27.391Z,83.26
2019-06-08T04:41:27.575Z,83.16
2019-06-08T04:42:27.390Z,82.97
2019-06-08T04:43:27.375Z,83.93
2019-06-08T04:44:27.397Z,83.54
2019-06-08T04:45:27.389Z,82.68
2019-06-08T04:46:27.372Z,83.64
2019-06-08T04:47:27.386Z,83.45
2019-06-08T04:48:27.382Z,83.83
2019-06-08T04:49:27.381Z,85.08
2019-06-08T04:50:27.409Z,85.08
2019-06-08T04:51:27.487Z,84.22
2019-06-08T04:52:27.386Z,83.26
2019-06-08T04:53:27.402Z,84.88
2019-06-08T04:54:27.418Z,84.59
2019-06-08T04:55:27.394Z,84.59
2019-06-08T04:56:27.394Z,84.12
2019-06-08T04:57:27.398Z,83.54
2019-06-08T04:58:27.388Z,84.02
2019-06-08T04:59:27.402Z,84.12
2019-06-08T05:00:31.224Z,83.93
2019-06-08T05:01:27.394Z,83.64
2019-06-08T05:02:27.394Z,84.69
2019-06-08T05:03:27.410Z,84.69
2019-06-08T05:04:27.404Z,85.84
2019-06-08T05:05:27.393Z,84.69
2019-06-08T05:06:27.404Z,85.55
2019-06-08T05:07:27.398Z,85.84
2019-06-08T05:08:27.398Z,85.65
2019-06-08T05:09:27.413Z,84.98
2019-06-08T05:10:27.435Z,83.64
2019-06-08T05:11:27.417Z,84.02
2019-06-08T05:12:27.414Z,82.59
2019-06-08T05:13:27.402Z,83.64
2019-06-08T05:14:27.403Z,83.93
2019-06-08T05:15:27.401Z,84.12
2019-06-08T05:16:27.403Z,84.59
2019-06-08T05:17:27.441Z,84.69
2019-06-08T05:18:27.425Z,84.41
2019-06-08T05:19:27.405Z,83.36
2019-06-08T05:20:38.409Z,84.31
2019-06-08T05:21:27.424Z,84.59
2019-06-08T05:22:27.410Z,84.02
2019-06-08T05:23:27.616Z,83.93
2019-06-08T05:24:27.417Z,84.59
2019-06-08T05:25:27.413Z,85.08
2019-06-08T05:26:27.408Z,84.79
2019-06-08T05:27:27.412Z,85.17
2019-06-08T05:28:27.410Z,84.50
2019-06-08T05:29:27.422Z,83.45
2019-06-08T05:30:28.185Z,82.74
2019-06-08T05:31:27.414Z,82.87
2019-06-08T05:32:27.418Z,83.26
2019-06-08T05:33:27.420Z,83.26
2019-06-08T05:34:27.433Z,83.06
2019-06-08T05:35:27.421Z,83.16
2019-06-08T05:36:27.416Z,84.22
2019-06-08T05:37:27.413Z,84.22
2019-06-08T05:38:27.423Z,83.26
2019-06-08T05:39:27.426Z,83.31
2019-06-08T05:40:27.423Z,82.68
2019-06-08T05:41:27.427Z,82.68
2019-06-08T05:42:27.433Z,82.68
2019-06-08T05:43:27.426Z,82.30
2019-06-08T05:44:27.436Z,82.11
2019-06-08T05:45:27.454Z,81.44
2019-06-08T05:46:27.440Z,81.30
2019-06-08T05:47:27.441Z,81.63
2019-06-08T05:48:27.456Z,81.21
2019-06-08T05:49:27.441Z,82.64
2019-06-08T05:50:27.434Z,82.54
2019-06-08T05:51:27.437Z,82.54
2019-06-08T05:52:27.430Z,82.54
2019-06-08T05:53:27.427Z,83.12
2019-06-08T05:54:27.459Z,81.88
2019-06-08T05:55:27.443Z,82.45
2019-06-08T05:56:27.452Z,82.54
2019-06-08T05:57:27.447Z,81.97
2019-06-08T05:58:27.444Z,81.78
2019-06-08T05:59:27.462Z,81.88
2019-06-08T06:00:27.451Z,81.97
2019-06-08T06:01:27.432Z,82.26
2019-06-08T06:02:27.431Z,81.02
2019-06-08T06:03:27.451Z,81.97
2019-06-08T06:04:27.440Z,81.59
2019-06-08T06:05:27.456Z,81.30
2019-06-08T06:06:27.444Z,81.30
2019-06-08T06:07:27.441Z,81.88
2019-06-08T06:08:27.443Z,82.07
2019-06-08T06:09:27.434Z,81.49
2019-06-08T06:10:27.489Z,82.26
2019-06-08T06:11:27.445Z,82.54
2019-06-08T06:12:27.472Z,82.45
2019-06-08T06:13:27.445Z,82.83
2019-06-08T06:14:27.480Z,82.07
2019-06-08T06:15:27.445Z,81.88
2019-06-08T06:16:27.456Z,82.35
2019-06-08T06:17:27.449Z,82.26
2019-06-08T06:18:27.440Z,82.07
2019-06-08T06:19:27.458Z,81.40
2019-06-08T06:20:27.447Z,82.54
2019-06-08T06:21:27.446Z,82.83
2019-06-08T06:22:27.459Z,82.54
2019-06-08T06:23:27.456Z,82.83
2019-06-08T06:24:27.447Z,82.35
2019-06-08T06:25:27.488Z,82.35
2019-06-08T06:26:27.454Z,82.45
2019-06-08T06:27:27.466Z,82.45
2019-06-08T06:28:27.467Z,83.12
2019-06-08T06:29:27.463Z,82.35
2019-06-08T06:30:27.465Z,82.83
2019-06-08T06:31:27.469Z,82.54
2019-06-08T06:32:27.472Z,82.45
2019-06-08T06:33:27.489Z,82.64
2019-06-08T06:34:27.474Z,83.12
2019-06-08T06:35:27.684Z,83.12
2019-06-08T06:36:27.460Z,83.12
2019-06-08T06:37:27.459Z,82.54
2019-06-08T06:38:27.458Z,83.22
2019-06-08T06:39:27.473Z,83.03
2019-06-08T06:40:27.470Z,82.93
2019-06-08T06:41:27.462Z,83.60
2019-06-08T06:42:27.456Z,83.79
2019-06-08T06:43:27.462Z,83.22
2019-06-08T06:44:27.459Z,83.79
2019-06-08T06:45:27.476Z,83.60
2019-06-08T06:46:27.507Z,83.69
2019-06-08T06:47:27.470Z,83.79
2019-06-08T06:48:27.457Z,83.03
2019-06-08T06:49:27.460Z,84.46
2019-06-08T06:50:27.463Z,84.55
2019-06-08T06:51:27.510Z,84.84
2019-06-08T06:52:27.464Z,83.89
2019-06-08T06:53:27.484Z,84.17
2019-06-08T06:54:27.465Z,85.03
2019-06-08T06:55:27.461Z,85.03
2019-06-08T06:56:27.465Z,84.75
2019-06-08T06:57:27.467Z,86.28
2019-06-08T06:58:27.463Z,84.84
2019-06-08T06:59:27.471Z,84.55
2019-06-08T07:00:27.465Z,83.79
2019-06-08T07:01:27.482Z,83.50
2019-06-08T07:02:27.482Z,84.36
2019-06-08T07:03:27.461Z,84.55
2019-06-08T07:04:27.503Z,85.61
2019-06-08T07:05:27.495Z,85.13
2019-06-08T07:06:27.479Z,85.71
2019-06-08T07:07:27.470Z,85.22
2019-06-08T07:08:27.482Z,85.41
2019-06-08T07:09:27.468Z,84.75
2019-06-08T07:10:27.471Z,85.03
2019-06-08T07:11:27.467Z,84.46
2019-06-08T07:12:27.467Z,85.80
2019-06-08T07:13:27.479Z,86.47
2019-06-08T07:14:27.480Z,86.18
2019-06-08T07:15:27.504Z,86.47
2019-06-08T07:16:27.479Z,85.13
2019-06-08T07:17:27.488Z,85.61
2019-06-08T07:18:27.470Z,85.61
2019-06-08T07:19:27.679Z,87.04
2019-06-08T07:20:27.574Z,87.14
2019-06-08T07:21:40.908Z,87.04
2019-06-08T07:22:27.477Z,86.18
2019-06-08T07:23:27.488Z,86.08
2019-06-08T07:24:27.731Z,86.18
2019-06-08T07:25:27.505Z,86.37
2019-06-08T07:26:27.480Z,86.18
2019-06-08T07:27:27.499Z,85.99
2019-06-08T07:28:27.477Z,85.99
2019-06-08T07:29:27.488Z,85.03
2019-06-08T07:30:27.497Z,84.36
2019-06-08T07:31:27.499Z,85.32
2019-06-08T07:32:27.491Z,84.27
2019-06-08T07:33:27.696Z,84.94
2019-06-08T07:34:27.487Z,85.13
2019-06-08T07:35:27.498Z,85.80
2019-06-08T07:36:27.484Z,85.99
2019-06-08T07:37:27.494Z,86.18
2019-06-08T07:38:27.487Z,85.71
2019-06-08T07:39:27.479Z,85.51
2019-06-08T07:40:27.492Z,85.22
2019-06-08T07:41:27.515Z,85.22
2019-06-08T07:42:27.503Z,85.13
2019-06-08T07:43:27.536Z,84.46
2019-06-08T07:44:27.503Z,85.75
2019-06-08T07:45:27.503Z,84.08
2019-06-08T07:46:27.492Z,84.50
2019-06-08T07:47:27.492Z,85.08
2019-06-08T07:48:27.487Z,84.88
2019-06-08T07:49:27.493Z,84.50
2019-06-08T07:50:27.490Z,84.12
2019-06-08T07:51:27.489Z,84.12
2019-06-08T07:52:27.511Z,83.93
2019-06-08T07:53:27.491Z,84.12
2019-06-08T07:54:27.507Z,83.73
2019-06-08T07:55:27.500Z,83.26
2019-06-08T07:56:27.494Z,84.98
2019-06-08T07:57:27.494Z,84.69
2019-06-08T07:58:27.496Z,84.59
2019-06-08T07:59:27.501Z,84.12
2019-06-08T08:00:27.501Z,84.88
2019-06-08T08:01:36.226Z,84.50
2019-06-08T08:02:27.492Z,84.79
2019-06-08T08:03:27.513Z,84.69
2019-06-08T08:04:27.501Z,84.50
2019-06-08T08:05:27.494Z,84.59
2019-06-08T08:06:30.318Z,83.45
2019-06-08T08:07:27.698Z,84.22
2019-06-08T08:08:27.516Z,84.12
2019-06-08T08:09:27.501Z,83.20
2019-06-08T08:10:27.500Z,82.73
2019-06-08T08:11:27.742Z,82.15
2019-06-08T08:12:27.506Z,80.90
2019-06-08T08:13:27.705Z,81.96
2019-06-08T08:14:27.514Z,82.73
2019-06-08T08:15:27.519Z,81.96
2019-06-08T08:16:27.504Z,82.43
2019-06-08T08:17:27.508Z,82.92
2019-06-08T08:18:27.513Z,82.06
2019-06-08T08:19:27.518Z,83.01
2019-06-08T08:20:27.539Z,80.33
2019-06-08T08:21:29.526Z,80.52
2019-06-08T08:22:29.628Z,80.04
2019-06-08T08:23:27.549Z,80.43
2019-06-08T08:24:27.543Z,80.71
2019-06-08T08:25:28.145Z,82.34
2019-06-08T08:26:30.447Z,81.43
2019-06-08T08:27:28.104Z,80.24
2019-06-08T08:28:27.985Z,80.81
2019-06-08T08:29:28.239Z,80.71
2019-06-08T08:30:28.415Z,80.85
2019-06-08T08:31:27.998Z,80.66
2019-06-08T08:32:28.329Z,81.04
2019-06-08T08:33:27.766Z,81.62
2019-06-08T08:34:28.383Z,81.52
2019-06-08T08:35:28.066Z,81.33
2019-06-08T08:36:29.424Z,81.23
2019-06-08T08:37:28.135Z,81.90
2019-06-08T08:38:27.541Z,81.90
2019-06-08T08:39:27.651Z,80.47
2019-06-08T08:40:28.236Z,80.66
2019-06-08T08:41:27.931Z,81.75
2019-06-08T08:42:30.048Z,80.32
2019-06-08T08:43:28.021Z,79.74
2019-06-08T08:44:28.325Z,79.16
2019-06-08T08:45:27.733Z,79.74
2019-06-08T08:46:28.583Z,79.83
2019-06-08T08:47:27.727Z,80.51
2019-06-08T08:48:29.354Z,79.07
2019-06-08T08:49:28.085Z,80.41
2019-06-08T08:50:28.299Z,80.03
2019-06-08T08:51:28.041Z,80.60
2019-06-08T08:52:36.427Z,81.18
2019-06-08T08:53:28.025Z,82.46
2019-06-08T08:54:29.710Z,81.70
2019-06-08T08:55:27.997Z,82.56
2019-06-08T08:56:28.067Z,80.35
2019-06-08T08:57:28.912Z,78.86
2019-06-08T08:58:28.072Z,78.09
2019-06-08T08:59:28.035Z,78.25
2019-06-08T09:00:28.171Z,79.24
2019-06-08T09:01:28.905Z,77.95
2019-06-08T09:02:27.776Z,77.86
2019-06-08T09:03:33.037Z,76.14
2019-06-08T09:04:27.797Z,77.76
2019-06-08T09:05:28.138Z,79.30
2019-06-08T09:06:27.994Z,78.44
2019-06-08T09:07:27.670Z,78.09
2019-06-08T09:08:29.730Z,79.24
2019-06-08T09:09:28.830Z,79.82
2019-06-08T09:10:28.066Z,79.72
2019-06-08T09:11:28.906Z,78.57
2019-06-08T09:12:27.736Z,76.07
2019-06-08T09:13:28.247Z,75.12
2019-06-08T09:14:28.078Z,75.21
2019-06-08T09:15:31.141Z,74.54
2019-06-08T09:16:28.770Z,75.08
2019-06-08T09:17:28.034Z,78.44
2019-06-08T09:18:28.658Z,79.21
2019-06-08T09:19:28.174Z,77.38
2019-06-08T09:20:28.565Z,76.90
2019-06-08T09:21:28.137Z,75.75
2019-06-08T09:22:28.240Z,75.27
2019-06-08T09:23:28.104Z,75.56
2019-06-08T09:24:28.589Z,75.65
2019-06-08T09:25:28.109Z,76.57
2019-06-08T09:26:28.805Z,76.62
2019-06-08T09:27:28.081Z,76.77
2019-06-08T09:28:28.508Z,76.57
2019-06-08T09:29:28.871Z,76.19
2019-06-08T09:30:27.629Z,78.11
2019-06-08T09:31:30.713Z,76.48
2019-06-08T09:32:28.184Z,77.15
2019-06-08T09:33:28.827Z,77.63
2019-06-08T09:34:28.251Z,77.92
2019-06-08T09:35:28.037Z,77.44
2019-06-08T09:36:28.732Z,77.63
2019-06-08T09:37:28.815Z,78.40
2019-06-08T09:38:28.665Z,79.83
2019-06-08T09:39:28.655Z,80.03
2019-06-08T09:40:31.871Z,78.11
2019-06-08T09:41:30.866Z,78.30
2019-06-08T09:42:28.483Z,78.69
2019-06-08T09:43:28.940Z,78.30
2019-06-08T09:44:28.081Z,79.74
2019-06-08T09:45:28.977Z,77.44
2019-06-08T09:46:27.874Z,78.59
2019-06-08T09:47:28.019Z,79.83
2019-06-08T09:48:28.807Z,79.26
2019-06-08T09:49:28.082Z,78.49
2019-06-08T09:50:27.850Z,78.49
2019-06-08T09:51:28.578Z,80.32
2019-06-08T09:52:28.174Z,80.12
2019-06-08T09:53:36.628Z,79.55
2019-06-08T09:54:28.303Z,78.97
2019-06-08T09:55:28.832Z,79.83
2019-06-08T09:56:28.241Z,82.62
2019-06-08T09:57:28.408Z,83.76
2019-06-08T09:58:29.092Z,81.37
2019-06-08T09:59:28.488Z,82.42
2019-06-08T10:00:29.166Z,80.70
2019-06-08T10:01:28.625Z,80.79
2019-06-08T10:02:28.320Z,80.51
2019-06-08T10:03:28.197Z,79.93
2019-06-08T10:04:29.197Z,81.56
2019-06-08T10:05:27.713Z,80.60
2019-06-08T10:06:27.606Z,80.51
2019-06-08T10:07:31.075Z,78.97
2019-06-08T10:08:28.322Z,80.89
2019-06-08T10:09:28.377Z,79.55
2019-06-08T10:10:27.614Z,79.16
2019-06-08T10:11:28.164Z,78.40
2019-06-08T10:12:28.204Z,77.92
2019-06-08T10:13:28.040Z,79.36
2019-06-08T10:14:28.219Z,79.93
2019-06-08T10:15:27.905Z,79.74
2019-06-08T10:16:30.530Z,79.07
2019-06-08T10:17:27.944Z,78.97
2019-06-08T10:18:28.504Z,81.46
2019-06-08T10:19:27.637Z,79.93
2019-06-08T10:20:28.830Z,78.97
2019-06-08T10:21:28.469Z,79.83
2019-06-08T10:22:28.321Z,79.26
2019-06-08T10:23:34.070Z,80.03
2019-06-08T10:24:27.635Z,80.32
2019-06-08T10:25:28.687Z,78.11
2019-06-08T10:26:28.125Z,77.44
2019-06-08T10:27:28.384Z,78.02
2019-06-08T10:28:28.914Z,78.88
2019-06-08T10:29:27.629Z,80.79
2019-06-08T10:30:28.348Z,80.32
2019-06-08T10:31:36.514Z,79.74
2019-06-08T10:32:28.196Z,81.27
2019-06-08T10:33:28.186Z,80.89
2019-06-08T10:34:29.614Z,79.97
2019-06-08T10:35:28.353Z,78.25
2019-06-08T10:36:28.408Z,79.01
2019-06-08T10:37:28.344Z,78.63
2019-06-08T10:38:28.942Z,79.01
2019-06-08T10:39:28.345Z,79.68
2019-06-08T10:40:28.622Z,78.53
2019-06-08T10:41:27.953Z,78.53
2019-06-08T10:42:27.658Z,77.95
2019-06-08T10:43:28.868Z,77.86
2019-06-08T10:44:28.373Z,77.95
2019-06-08T10:45:28.649Z,78.05
2019-06-08T10:46:27.656Z,78.72
2019-06-08T10:47:29.704Z,77.38
2019-06-08T10:48:27.749Z,77.67
2019-06-08T10:49:28.711Z,77.67
2019-06-08T10:50:28.824Z,79.21
2019-06-08T10:51:27.664Z,79.97
2019-06-08T10:52:28.231Z,79.88
2019-06-08T10:53:29.774Z,77.86
2019-06-08T10:54:27.832Z,77.95
2019-06-08T10:55:28.083Z,78.15
2019-06-08T10:56:28.392Z,77.76
2019-06-08T10:57:28.068Z,78.34
2019-06-08T10:58:28.346Z,78.72
2019-06-08T10:59:28.938Z,77.71
2019-06-08T11:00:28.300Z,79.30
2019-06-08T11:01:28.315Z,80.45
2019-06-08T11:02:28.120Z,79.01
2019-06-08T11:03:30.465Z,77.90
2019-06-08T11:04:28.670Z,77.00
2019-06-08T11:05:28.135Z,77.33
2019-06-08T11:06:27.677Z,77.90
2019-06-08T11:07:28.043Z,77.71
2019-06-08T11:08:27.891Z,78.86
2019-06-08T11:09:28.528Z,81.35
2019-06-08T11:10:27.883Z,80.78
2019-06-08T11:11:28.495Z,78.28
2019-06-08T11:12:28.303Z,77.71
2019-06-08T11:13:28.329Z,77.90
2019-06-08T11:14:27.915Z,77.04
2019-06-08T11:15:29.703Z,76.65
2019-06-08T11:16:28.683Z,76.56
2019-06-08T11:17:28.077Z,78.38
2019-06-08T11:18:28.651Z,77.80
2019-06-08T11:19:27.682Z,78.19
2019-06-08T11:20:30.024Z,78.09
2019-06-08T11:21:28.595Z,78.57
2019-06-08T11:22:27.906Z,77.51
2019-06-08T11:23:28.759Z,76.94
2019-06-08T11:24:28.930Z,78.47
2019-06-08T11:25:28.087Z,80.78
2019-06-08T11:26:28.922Z,79.14
2019-06-08T11:27:28.535Z,80.78
2019-06-08T11:28:28.364Z,79.44
2019-06-08T11:29:30.633Z,78.96
2019-06-08T11:30:30.440Z,80.01
2019-06-08T11:31:31.198Z,78.00
2019-06-08T11:32:27.714Z,78.96
2019-06-08T11:33:30.269Z,78.67
2019-06-08T11:34:28.737Z,79.82
2019-06-08T11:35:28.608Z,79.24
2019-06-08T11:36:28.297Z,80.40
2019-06-08T11:37:27.741Z,78.38
2019-06-08T11:38:28.873Z,78.57
2019-06-08T11:39:28.697Z,78.67
2019-06-08T11:40:27.931Z,78.96
2019-06-08T11:41:27.968Z,77.51
2019-06-08T11:42:28.516Z,77.71
2019-06-08T11:43:28.711Z,76.71
2019-06-08T11:44:27.763Z,77.00
2019-06-08T11:45:27.738Z,79.01
2019-06-08T11:46:28.180Z,79.59
2019-06-08T11:47:30.946Z,79.68
2019-06-08T11:48:28.528Z,80.01
2019-06-08T11:49:27.973Z,79.72
2019-06-08T11:50:27.723Z,81.64
2019-06-08T11:51:29.755Z,80.40
2019-06-08T11:52:28.592Z,79.82
2019-06-08T11:53:28.808Z,78.77
2019-06-08T11:54:36.863Z,80.58
2019-06-08T11:55:28.234Z,79.91
2019-06-08T11:56:27.933Z,80.97
2019-06-08T11:57:28.354Z,81.35
2019-06-08T11:58:28.346Z,79.72
2019-06-08T11:59:28.528Z,79.91
2019-06-08T12:00:30.909Z,79.63
2019-06-08T12:01:27.795Z,79.72
2019-06-08T12:02:27.743Z,78.77
2019-06-08T12:03:30.378Z,76.65
2019-06-08T12:04:28.327Z,76.37
2019-06-08T12:05:27.913Z,76.37
2019-06-08T12:06:27.760Z,77.80
2019-06-08T12:07:29.979Z,79.91
2019-06-08T12:08:28.392Z,78.77
2019-06-08T12:09:28.660Z,78.86
2019-06-08T12:10:28.542Z,78.19
2019-06-08T12:11:28.374Z,77.04
2019-06-08T12:12:28.285Z,79.05
2019-06-08T12:13:27.988Z,79.24
2019-06-08T12:14:27.769Z,77.80
2019-06-08T12:15:28.651Z,77.80
2019-06-08T12:16:28.323Z,77.04
2019-06-08T12:17:27.767Z,76.46
2019-06-08T12:18:27.825Z,75.50
2019-06-08T12:19:28.408Z,77.56
2019-06-08T12:20:28.050Z,76.75
2019-06-08T12:21:27.781Z,75.25
2019-06-08T12:22:27.803Z,77.36
2019-06-08T12:23:27.771Z,77.36
2019-06-08T12:24:40.834Z,77.08
2019-06-08T12:25:27.769Z,75.82
2019-06-08T12:26:27.786Z,76.59
2019-06-08T12:27:33.672Z,77.33
2019-06-08T12:28:28.135Z,80.34
2019-06-08T12:29:28.382Z,78.00
2019-06-08T12:30:29.633Z,75.89
2019-06-08T12:31:28.173Z,75.02
2019-06-08T12:32:27.914Z,74.64
2019-06-08T12:33:28.542Z,76.02
2019-06-08T12:34:28.115Z,75.73
2019-06-08T12:35:28.381Z,76.21
2019-06-08T12:36:28.756Z,74.96
2019-06-08T12:37:27.789Z,74.68
2019-06-08T12:38:31.166Z,76.12
2019-06-08T12:39:28.237Z,77.08
2019-06-08T12:40:28.249Z,78.61
2019-06-08T12:41:28.887Z,76.84
2019-06-08T12:42:28.341Z,76.27
2019-06-08T12:43:28.420Z,75.89
2019-06-08T12:44:29.162Z,76.17
2019-06-08T12:45:27.817Z,75.21
2019-06-08T12:46:28.150Z,75.31
2019-06-08T12:47:29.919Z,75.02
2019-06-08T12:48:28.695Z,77.36
2019-06-08T12:49:27.836Z,77.08
2019-06-08T12:50:28.204Z,75.15
2019-06-08T12:51:28.188Z,76.59
2019-06-08T12:52:29.776Z,78.61